カンクン の空港の天気 - METARとTAF

カンクン国際空港 ( MMUN / CUN ) - メキシコ キンタナ・ロー州カンクン
飛行場実況気象(Metar)
観測時間02/27 17:45 CST (02/27 23:45 UTC)
風向・風速東 4m/s
視程10km以上
天気現象
全天の8割程度の雲 雲底高度 460m
全天を覆う雲 雲底高度 2440m
気温26℃
湿度84%
気圧1018hPa
METARMMUN 272345Z 09007KT 7SM BKN015 OVC080 26/23 A3006 RMK SLP180 52007 919 8/57/ BINOVC
過去の天気等 Google飛行場航空写真 Wunderground天気予報

過去48時間のMETAR

飛行場予報(TAF)
発表時間: 2/27 17:14 CST (2/27 23:14 UTC)
予報対象時間: 27日18時 CST ~ 1日0時 CST
風向・風速東南東 6m/s
視程10km以上
全天の4割程度の雲 雲底高度 460m
全天の8割程度の雲 雲底高度 2,440m
27日20時 CST ~ 27日21時 CST に徐々に
風向・風速東 4m/s
全天の4割程度の雲 雲底高度 460m
全天の4割程度の雲 雲底高度 2,440m
28日0時 CST から
風向・風速東 3m/s
視程10km以上
全天の4割程度の雲 雲底高度 460m
28日11時 CST ~ 28日12時 CST に徐々に
風向・風速東 6m/s
28日14時 CST から
風向・風速東 8m/s
視程10km以上
全天の4割程度の雲 雲底高度 460m
28日21時 CST ~ 28日22時 CST に徐々に
風向・風速東 5m/s
TAF COR MMUN 272314Z 2800/0106 11012KT P6SM SCT015 BKN080 TX29/2818Z TN24/2810Z
BECMG 2802/2803 10008KT SCT015 SCT080
FM280600 10006KT P6SM SCT015
BECMG 2817/2818 10012KT
FM282000 10015KT P6SM SCT015
BECMG 0103/0104 10010KT